createdAt,value
2022-12-25T00:00:55.564Z,96503.56
2022-12-25T00:03:22.442Z,96510.00
2022-12-25T00:05:49.120Z,96517.22
2022-12-25T00:08:15.751Z,96516.44
2022-12-25T00:10:45.177Z,96508.91
2022-12-25T00:13:12.267Z,96507.13
2022-12-25T00:15:41.903Z,96511.63
2022-12-25T00:18:08.700Z,96513.75
2022-12-25T00:20:36.380Z,96514.56
2022-12-25T00:23:02.962Z,96527.16
2022-12-25T00:25:29.658Z,96520.16
2022-12-25T00:27:56.231Z,96514.25
2022-12-25T00:30:22.874Z,96515.38
2022-12-25T00:32:49.513Z,96509.53
2022-12-25T00:35:16.172Z,96504.13
2022-12-25T00:37:42.809Z,96501.97
2022-12-25T00:40:09.996Z,96488.06
2022-12-25T00:42:36.595Z,96488.56
2022-12-25T00:45:03.540Z,96485.63
2022-12-25T00:47:30.355Z,96500.03
2022-12-25T00:49:56.950Z,96504.63
2022-12-25T00:52:23.545Z,96503.03
2022-12-25T00:54:50.093Z,96505.69
2022-12-25T00:57:16.713Z,96509.72
2022-12-25T00:59:43.320Z,96512.66
2022-12-25T01:02:25.566Z,96521.81
2022-12-25T01:04:57.014Z,96516.94
2022-12-25T01:07:26.388Z,96523.91
2022-12-25T01:10:11.705Z,96536.50
2022-12-25T01:12:41.660Z,96531.41
2022-12-25T01:15:10.153Z,96530.88
2022-12-25T01:17:36.888Z,96526.56
2022-12-25T01:20:04.299Z,96523.34
2022-12-25T01:22:30.909Z,96531.66
2022-12-25T01:24:57.536Z,96530.31
2022-12-25T01:27:24.156Z,96520.44
2022-12-25T01:29:50.772Z,96521.50
2022-12-25T01:32:17.419Z,96522.31
2022-12-25T01:34:44.245Z,96529.28
2022-12-25T01:37:11.226Z,96520.72
2022-12-25T01:39:37.925Z,96515.88
2022-12-25T01:42:04.608Z,96515.88
2022-12-25T01:44:37.142Z,96513.22
2022-12-25T01:47:05.696Z,96507.84
2022-12-25T01:49:34.751Z,96510.56
2022-12-25T01:52:24.783Z,96498.88
2022-12-25T01:54:57.936Z,96502.25
2022-12-25T01:57:27.259Z,96497.16
2022-12-25T01:59:56.340Z,96491.28
2022-12-25T02:02:23.509Z,96485.50
2022-12-25T02:04:58.478Z,96489.00
2022-12-25T02:07:26.978Z,96488.66
2022-12-25T02:09:53.865Z,96487.06
2022-12-25T02:12:25.977Z,96484.41
2022-12-25T02:15:01.125Z,96490.84
2022-12-25T02:17:50.147Z,96494.31
2022-12-25T02:20:22.461Z,96484.94
2022-12-25T02:23:17.589Z,96486.03
2022-12-25T02:26:09.303Z,96480.41
2022-12-25T02:28:45.965Z,96480.66
2022-12-25T02:31:12.802Z,96472.13
2022-12-25T02:34:03.048Z,96466.75
2022-12-25T02:36:46.167Z,96459.78
2022-12-25T02:39:46.484Z,96467.81
2022-12-25T02:42:21.405Z,96465.69
2022-12-25T02:45:09.786Z,96475.56
2022-12-25T02:47:56.700Z,96478.22
2022-12-25T02:50:44.149Z,96482.84
2022-12-25T02:53:30.662Z,96482.31
2022-12-25T02:56:17.045Z,96488.44
2022-12-25T02:59:05.096Z,96491.66
2022-12-25T03:01:53.151Z,96487.09
2022-12-25T03:04:41.341Z,96480.66
2022-12-25T03:07:20.602Z,96491.94
2022-12-25T03:10:15.855Z,96490.34
2022-12-25T03:13:25.936Z,96486.59
2022-12-25T03:16:11.045Z,96486.06
2022-12-25T03:18:37.888Z,96482.28
2022-12-25T03:21:40.234Z,96484.44
2022-12-25T03:24:25.701Z,96472.69
2022-12-25T03:26:55.977Z,96479.63
2022-12-25T03:29:47.087Z,96479.06
2022-12-25T03:32:37.704Z,96477.53
2022-12-25T03:35:47.627Z,96478.31
2022-12-25T03:38:47.939Z,96472.16
2022-12-25T03:42:01.990Z,96462.50
2022-12-25T03:45:25.607Z,96467.34
2022-12-25T03:48:13.045Z,96465.22
2022-12-25T03:51:06.668Z,96470.56
2022-12-25T03:54:02.766Z,96469.22
2022-12-25T03:56:49.501Z,96466.31
2022-12-25T03:59:39.821Z,96474.06
2022-12-25T04:02:25.319Z,96479.13
2022-12-25T04:05:10.554Z,96483.97
2022-12-25T04:07:55.512Z,96472.19
2022-12-25T04:10:40.862Z,96475.13
2022-12-25T04:13:26.197Z,96477.53
2022-12-25T04:16:12.304Z,96478.59
2022-12-25T04:18:57.467Z,96478.06
2022-12-25T04:21:43.370Z,96466.28
2022-12-25T04:24:29.452Z,96464.72
2022-12-25T04:27:14.740Z,96463.63
2022-12-25T04:30:00.009Z,96463.63
2022-12-25T04:32:45.338Z,96463.91
2022-12-25T04:35:30.628Z,96462.56
2022-12-25T04:37:57.340Z,96470.56
2022-12-25T04:40:24.131Z,96468.19
2022-12-25T04:42:51.736Z,96469.25
2022-12-25T04:45:18.571Z,96463.09
2022-12-25T04:47:45.156Z,96464.16
2022-12-25T04:50:12.016Z,96473.53
2022-12-25T04:52:41.091Z,96476.97
2022-12-25T04:55:09.297Z,96475.91
2022-12-25T04:57:36.889Z,96472.44
2022-12-25T05:00:05.247Z,96474.31
2022-12-25T05:02:32.298Z,96472.19
2022-12-25T05:04:59.035Z,96475.41
2022-12-25T05:07:25.709Z,96474.31
2022-12-25T05:09:52.323Z,96474.31
2022-12-25T05:12:18.965Z,96474.31
2022-12-25T05:14:45.558Z,96475.91
2022-12-25T05:17:12.150Z,96476.22
2022-12-25T05:19:38.726Z,96477.50
2022-12-25T05:22:05.347Z,96472.16
2022-12-25T05:24:32.061Z,96477.78
2022-12-25T05:26:58.704Z,96473.50
2022-12-25T05:29:25.409Z,96478.84
2022-12-25T05:31:52.100Z,96475.09
2022-12-25T05:34:18.747Z,96482.31
2022-12-25T05:36:45.384Z,96473.22
2022-12-25T05:39:12.020Z,96482.88
2022-12-25T05:41:38.681Z,96484.44
2022-12-25T05:44:05.306Z,96474.28
2022-12-25T05:46:32.085Z,96471.63
2022-12-25T05:48:58.759Z,96472.13
2022-12-25T05:51:26.178Z,96467.06
2022-12-25T05:53:52.995Z,96457.69
2022-12-25T05:56:19.588Z,96457.41
2022-12-25T05:58:46.219Z,96465.16
2022-12-25T06:01:19.941Z,96463.03
2022-12-25T06:03:46.949Z,96459.81
2022-12-25T06:06:22.240Z,96463.59
2022-12-25T06:08:48.960Z,96469.97
2022-12-25T06:11:15.943Z,96460.38
2022-12-25T06:13:43.438Z,96455.56
2022-12-25T06:16:12.085Z,96457.69
2022-12-25T06:18:41.421Z,96452.31
2022-12-25T06:21:09.419Z,96446.16
2022-12-25T06:23:37.260Z,96444.84
2022-12-25T06:26:09.814Z,96441.09
2022-12-25T06:28:36.962Z,96444.59
2022-12-25T06:31:08.374Z,96450.75
2022-12-25T06:33:36.024Z,96447.00
2022-12-25T06:36:11.865Z,96450.75
2022-12-25T06:38:38.492Z,96444.34
2022-12-25T06:41:13.679Z,96441.66
2022-12-25T06:43:40.608Z,96451.28
2022-12-25T06:46:10.271Z,96451.28
2022-12-25T06:48:38.069Z,96444.84
2022-12-25T06:51:06.326Z,96439.78
2022-12-25T06:53:39.983Z,96436.84
2022-12-25T06:56:16.016Z,96440.03
2022-12-25T06:58:44.073Z,96433.06
2022-12-25T07:01:16.855Z,96437.38
2022-12-25T07:03:46.273Z,96439.78
2022-12-25T07:06:12.953Z,96447.53
2022-12-25T07:08:39.687Z,96441.13
2022-12-25T07:11:06.678Z,96459.59
2022-12-25T07:13:33.592Z,96461.47
2022-12-25T07:16:02.118Z,96452.34
2022-12-25T07:18:29.367Z,96455.59
2022-12-25T07:20:56.038Z,96463.03
2022-12-25T07:23:23.435Z,96464.13
2022-12-25T07:25:57.289Z,96465.75
2022-12-25T07:28:24.134Z,96466.28
2022-12-25T07:30:50.833Z,96457.44
2022-12-25T07:33:17.526Z,96463.59
2022-12-25T07:35:44.473Z,96469.19
2022-12-25T07:38:11.431Z,96471.88
2022-12-25T07:40:38.608Z,96479.13
2022-12-25T07:43:05.323Z,96477.53
2022-12-25T07:45:32.002Z,96481.25
2022-12-25T07:48:04.323Z,96484.44
2022-12-25T07:50:31.985Z,96489.25
2022-12-25T07:52:58.575Z,96480.13
2022-12-25T07:55:25.195Z,96491.91
2022-12-25T07:57:52.536Z,96488.16
2022-12-25T08:00:19.623Z,96489.53
2022-12-25T08:02:49.882Z,96479.88
2022-12-25T08:05:16.970Z,96481.22
2022-12-25T08:07:43.665Z,96486.03
2022-12-25T08:10:10.670Z,96478.53
2022-12-25T08:12:37.278Z,96482.28
2022-12-25T08:15:04.250Z,96475.28
2022-12-25T08:17:30.831Z,96484.91
2022-12-25T08:19:57.465Z,96470.94
2022-12-25T08:22:24.044Z,96474.72
2022-12-25T08:24:50.623Z,96467.19
2022-12-25T08:27:17.259Z,96466.91
2022-12-25T08:29:44.726Z,96470.38
2022-12-25T08:32:11.361Z,96469.03
2022-12-25T08:34:38.873Z,96466.31
2022-12-25T08:37:05.514Z,96462.78
2022-12-25T08:39:32.367Z,96473.47
2022-12-25T08:41:58.983Z,96478.28
2022-12-25T08:44:25.576Z,96474.56
2022-12-25T08:46:52.237Z,96471.25
2022-12-25T08:49:19.397Z,96475.41
2022-12-25T08:51:46.220Z,96468.88
2022-12-25T08:54:12.858Z,96471.28
2022-12-25T08:56:39.520Z,96476.72
2022-12-25T08:59:06.171Z,96461.75
2022-12-25T09:01:32.936Z,96460.81
2022-12-25T09:03:59.665Z,96461.84
2022-12-25T09:06:26.287Z,96456.88
2022-12-25T09:08:52.933Z,96463.34
2022-12-25T09:11:20.316Z,96466.72
2022-12-25T09:13:47.938Z,96471.84
2022-12-25T09:16:18.943Z,96463.00
2022-12-25T09:18:45.739Z,96450.09
2022-12-25T09:21:14.167Z,96451.78
2022-12-25T09:23:42.269Z,96443.59
2022-12-25T09:26:12.853Z,96437.25
2022-12-25T09:28:43.663Z,96446.41
2022-12-25T09:31:13.491Z,96448.72
2022-12-25T09:33:40.133Z,96449.16
2022-12-25T09:36:08.329Z,96440.97
2022-12-25T09:38:36.015Z,96449.06
2022-12-25T09:41:07.783Z,96446.09
2022-12-25T09:43:46.384Z,96438.28
2022-12-25T09:46:17.300Z,96444.72
2022-12-25T09:48:55.299Z,96438.66
2022-12-25T09:51:24.594Z,96431.13
2022-12-25T09:54:03.071Z,96440.72
2022-12-25T09:56:29.688Z,96427.25
2022-12-25T09:58:56.406Z,96423.63
2022-12-25T10:01:50.446Z,96427.75
2022-12-25T10:04:41.176Z,96421.84
2022-12-25T10:07:37.065Z,96414.94
2022-12-25T10:10:28.010Z,96412.94
2022-12-25T10:13:24.095Z,96406.66
2022-12-25T10:16:07.081Z,96412.13
2022-12-25T10:18:51.607Z,96405.00
2022-12-25T10:21:19.395Z,96400.47
2022-12-25T10:23:54.770Z,96400.97
2022-12-25T10:26:25.175Z,96396.28
2022-12-25T10:29:14.823Z,96395.72
2022-12-25T10:31:45.285Z,96385.53
2022-12-25T10:34:13.231Z,96384.06
2022-12-25T10:36:42.038Z,96382.00
2022-12-25T10:39:16.363Z,96383.53
2022-12-25T10:41:45.922Z,96376.25
2022-12-25T10:44:20.803Z,96379.56
2022-12-25T10:46:52.802Z,96375.91
2022-12-25T10:49:23.031Z,96369.13
2022-12-25T10:51:50.326Z,96357.25
2022-12-25T10:54:35.792Z,96350.50
2022-12-25T10:57:23.909Z,96352.09
2022-12-25T10:59:57.242Z,96356.22
2022-12-25T11:02:25.911Z,96359.84
2022-12-25T11:05:02.447Z,96372.63
2022-12-25T11:07:30.237Z,96372.06
2022-12-25T11:10:05.955Z,96370.97
2022-12-25T11:12:44.546Z,96366.03
2022-12-25T11:15:36.429Z,96354.75
2022-12-25T11:18:05.184Z,96355.88
2022-12-25T11:20:33.264Z,96347.97
2022-12-25T11:22:59.902Z,96342.66
2022-12-25T11:25:28.163Z,96341.66
2022-12-25T11:28:00.034Z,96331.03
2022-12-25T11:30:29.852Z,96339.88
2022-12-25T11:33:00.441Z,96330.09
2022-12-25T11:35:31.993Z,96338.16
2022-12-25T11:37:58.795Z,96321.63
2022-12-25T11:40:30.871Z,96310.44
2022-12-25T11:43:19.823Z,96296.09
2022-12-25T11:46:00.239Z,96290.00
2022-12-25T11:48:41.322Z,96280.69
2022-12-25T11:51:10.039Z,96271.56
2022-12-25T11:53:43.996Z,96260.88
2022-12-25T11:56:29.317Z,96264.81
2022-12-25T11:59:07.155Z,96260.69
2022-12-25T12:01:42.869Z,96252.66
2022-12-25T12:04:43.558Z,96252.59
2022-12-25T12:07:17.338Z,96250.63
2022-12-25T12:09:55.969Z,96236.94
2022-12-25T12:12:28.874Z,96241.06
2022-12-25T12:14:55.348Z,96248.94
2022-12-25T12:17:22.031Z,96246.50
2022-12-25T12:19:48.773Z,96238.31
2022-12-25T12:22:24.959Z,96238.38
2022-12-25T12:24:58.552Z,96231.88
2022-12-25T12:27:43.659Z,96229.97
2022-12-25T12:30:34.780Z,96241.03
2022-12-25T12:33:05.646Z,96240.63
2022-12-25T12:35:36.109Z,96228.03
2022-12-25T12:38:06.612Z,96223.59
2022-12-25T12:40:40.841Z,96227.50
2022-12-25T12:43:33.970Z,96229.34
2022-12-25T12:46:19.169Z,96223.66
2022-12-25T12:48:51.209Z,96216.44
2022-12-25T12:51:32.899Z,96212.28
2022-12-25T12:54:07.352Z,96213.28
2022-12-25T12:56:33.961Z,96215.09
2022-12-25T12:59:00.605Z,96221.19
2022-12-25T13:01:27.305Z,96217.38
2022-12-25T13:04:11.952Z,96222.91
2022-12-25T13:06:51.536Z,96224.75
2022-12-25T13:09:35.968Z,96229.56
2022-12-25T13:12:08.262Z,96220.50
2022-12-25T13:14:36.234Z,96225.50
2022-12-25T13:17:07.613Z,96212.63
2022-12-25T13:19:36.588Z,96205.56
2022-12-25T13:22:06.853Z,96209.66
2022-12-25T13:24:36.078Z,96212.22
2022-12-25T13:27:21.710Z,96205.56
2022-12-25T13:29:48.346Z,96199.56
2022-12-25T13:32:22.999Z,96198.00
2022-12-25T13:34:50.625Z,96204.81
2022-12-25T13:37:20.875Z,96198.13
2022-12-25T13:39:47.445Z,96207.09
2022-12-25T13:42:17.499Z,96206.25
2022-12-25T13:44:47.950Z,96210.72
2022-12-25T13:47:22.572Z,96211.41
2022-12-25T13:49:51.159Z,96204.22
2022-12-25T13:52:24.312Z,96203.56
2022-12-25T13:54:58.947Z,96207.78
2022-12-25T13:57:30.322Z,96198.56
2022-12-25T13:59:57.809Z,96208.28
2022-12-25T14:02:30.275Z,96217.94
2022-12-25T14:04:57.099Z,96212.41
2022-12-25T14:07:24.769Z,96213.97
2022-12-25T14:09:57.564Z,96205.28
2022-12-25T14:12:25.863Z,96207.72
2022-12-25T14:14:53.692Z,96200.88
2022-12-25T14:17:21.194Z,96204.19
2022-12-25T14:19:58.775Z,96212.69
2022-12-25T14:22:30.075Z,96210.34
2022-12-25T14:24:56.728Z,96197.25
2022-12-25T14:27:28.779Z,96194.00
2022-12-25T14:29:58.567Z,96195.13
2022-12-25T14:32:29.141Z,96193.13
2022-12-25T14:34:59.621Z,96208.47
2022-12-25T14:37:30.613Z,96208.94
2022-12-25T14:40:01.422Z,96192.78
2022-12-25T14:42:30.925Z,96201.94
2022-12-25T14:45:03.495Z,96214.06
2022-12-25T14:47:32.417Z,96202.34
2022-12-25T14:49:59.952Z,96204.69
2022-12-25T14:52:31.687Z,96209.56
2022-12-25T14:55:01.805Z,96201.69
2022-12-25T14:57:34.442Z,96192.94
2022-12-25T15:00:06.391Z,96202.09
2022-12-25T15:02:45.849Z,96200.09
2022-12-25T15:05:42.371Z,96183.31
2022-12-25T15:08:08.921Z,96190.06
2022-12-25T15:13:23.383Z,96192.59
2022-12-25T15:15:49.991Z,96190.06
2022-12-25T15:18:17.563Z,96176.41
2022-12-25T15:20:44.276Z,96177.91
2022-12-25T15:23:20.147Z,96177.41
2022-12-25T15:25:47.625Z,96184.72
2022-12-25T15:28:14.505Z,96178.22
2022-12-25T15:30:41.416Z,96173.59
2022-12-25T15:33:16.662Z,96176.31
2022-12-25T15:35:44.482Z,96165.34
2022-12-25T15:38:14.156Z,96168.53
2022-12-25T15:40:41.742Z,96173.66
2022-12-25T15:43:38.992Z,96175.53
2022-12-25T15:45:58.903Z,96178.47
2022-12-25T15:48:25.495Z,96177.66
2022-12-25T15:50:52.133Z,96176.34
2022-12-25T15:53:18.750Z,96174.94
2022-12-25T15:55:45.366Z,96173.09
2022-12-25T15:58:12.963Z,96180.56
2022-12-25T16:00:39.617Z,96190.44
2022-12-25T16:03:06.284Z,96186.66
2022-12-25T16:05:33.122Z,96189.88
2022-12-25T16:07:59.768Z,96188.63
2022-12-25T16:10:26.351Z,96193.44
2022-12-25T16:12:52.970Z,96194.69
2022-12-25T16:15:19.569Z,96188.75
2022-12-25T16:17:46.204Z,96196.34
2022-12-25T16:20:13.245Z,96195.28
2022-12-25T16:22:40.080Z,96196.81
2022-12-25T16:25:13.811Z,96190.63
2022-12-25T16:27:40.584Z,96192.06
2022-12-25T16:30:08.003Z,96195.06
2022-12-25T16:32:34.698Z,96194.16
2022-12-25T16:35:01.366Z,96195.09
2022-12-25T16:37:28.761Z,96197.69
2022-12-25T16:39:55.493Z,96191.16
2022-12-25T16:42:22.219Z,96189.88
2022-12-25T16:44:48.832Z,96199.22
2022-12-25T16:47:15.446Z,96201.59
2022-12-25T16:49:42.133Z,96197.94
2022-12-25T16:52:08.736Z,96198.88
2022-12-25T16:54:35.432Z,96197.44
2022-12-25T16:57:02.041Z,96201.81
2022-12-25T16:59:32.993Z,96207.00
2022-12-25T17:01:59.750Z,96201.53
2022-12-25T17:04:27.879Z,96208.03
2022-12-25T17:06:54.564Z,96202.31
2022-12-25T17:09:21.175Z,96206.59
2022-12-25T17:11:47.825Z,96199.91
2022-12-25T17:14:14.429Z,96201.94
2022-12-25T17:16:41.287Z,96201.63
2022-12-25T17:19:16.380Z,96196.59
2022-12-25T17:21:43.041Z,96195.03
2022-12-25T17:24:09.962Z,96198.38
2022-12-25T17:26:36.647Z,96192.94
2022-12-25T17:29:03.847Z,96203.78
2022-12-25T17:31:30.533Z,96195.47
2022-12-25T17:33:57.832Z,96199.41
2022-12-25T17:36:24.493Z,96197.28
2022-12-25T17:38:51.260Z,96196.97
2022-12-25T17:41:19.558Z,96200.34
2022-12-25T17:43:47.329Z,96193.38
2022-12-25T17:46:21.681Z,96197.03
2022-12-25T17:48:51.877Z,96195.47
2022-12-25T17:51:22.025Z,96191.13
2022-12-25T17:53:51.573Z,96190.56
2022-12-25T17:56:19.995Z,96196.06
2022-12-25T17:58:51.803Z,96190.75
2022-12-25T18:01:19.963Z,96189.69
2022-12-25T18:03:47.151Z,96205.44
2022-12-25T18:06:19.296Z,96195.28
2022-12-25T18:08:47.004Z,96201.63
2022-12-25T18:11:20.633Z,96206.97
2022-12-25T18:13:50.015Z,96204.88
2022-12-25T18:16:18.466Z,96210.28
2022-12-25T18:18:51.381Z,96202.47
2022-12-25T18:21:19.513Z,96199.41
2022-12-25T18:23:46.533Z,96209.28
2022-12-25T18:26:13.627Z,96208.81
2022-12-25T18:28:42.488Z,96202.41
2022-12-25T18:31:16.882Z,96198.72
2022-12-25T18:33:44.723Z,96202.75
2022-12-25T18:36:13.469Z,96205.25
2022-12-25T18:38:40.559Z,96189.19
2022-12-25T18:41:09.457Z,96192.41
2022-12-25T18:43:52.840Z,96200.69
2022-12-25T18:46:26.972Z,96197.97
2022-12-25T18:48:55.424Z,96201.19
2022-12-25T18:51:22.326Z,96201.25
2022-12-25T18:53:49.026Z,96201.25
2022-12-25T18:56:17.556Z,96204.22
2022-12-25T18:58:45.520Z,96211.38
2022-12-25T19:01:21.613Z,96211.13
2022-12-25T19:03:49.856Z,96203.53
2022-12-25T19:06:25.232Z,96213.16
2022-12-25T19:08:52.276Z,96230.22
2022-12-25T19:11:19.645Z,96219.31
2022-12-25T19:13:46.573Z,96226.47
2022-12-25T19:16:14.273Z,96215.25
2022-12-25T19:18:40.956Z,96216.38
2022-12-25T19:21:09.317Z,96215.31
2022-12-25T19:23:37.856Z,96223.84
2022-12-25T19:26:06.410Z,96225.41
2022-12-25T19:28:33.185Z,96225.69
2022-12-25T19:31:00.918Z,96224.84
2022-12-25T19:33:27.939Z,96221.16
2022-12-25T19:35:59.568Z,96215.28
2022-12-25T19:38:26.394Z,96216.38
2022-12-25T19:41:00.843Z,96223.06
2022-12-25T19:43:33.676Z,96219.31
2022-12-25T19:46:01.834Z,96217.97
2022-12-25T19:48:29.490Z,96213.41
2022-12-25T19:50:56.169Z,96217.41
2022-12-25T19:53:26.058Z,96216.66
2022-12-25T19:55:53.696Z,96221.69
2022-12-25T19:58:21.968Z,96220.09
2022-12-25T20:01:05.543Z,96230.22
2022-12-25T20:03:33.799Z,96220.09
2022-12-25T20:06:01.097Z,96226.78
2022-12-25T20:08:28.081Z,96227.00
2022-12-25T20:10:55.001Z,96229.56
2022-12-25T20:13:21.776Z,96232.31
2022-12-25T20:15:48.733Z,96234.94
2022-12-25T20:18:16.871Z,96244.03
2022-12-25T20:20:45.007Z,96231.72
2022-12-25T20:23:11.710Z,96241.41
2022-12-25T20:25:42.076Z,96251.28
2022-12-25T20:28:09.152Z,96241.97
2022-12-25T20:30:39.587Z,96246.50
2022-12-25T20:33:06.376Z,96246.22
2022-12-25T20:35:33.081Z,96248.63
2022-12-25T20:37:59.695Z,96256.78
2022-12-25T20:40:26.325Z,96260.97
2022-12-25T20:42:53.001Z,96257.31
2022-12-25T20:45:19.658Z,96263.22
2022-12-25T20:47:46.273Z,96258.28
2022-12-25T20:50:12.908Z,96267.91
2022-12-25T20:52:39.496Z,96256.72
2022-12-25T20:55:06.302Z,96263.13
2022-12-25T20:57:33.734Z,96261.03
2022-12-25T21:00:00.390Z,96261.28
2022-12-25T21:02:35.515Z,96258.34
2022-12-25T21:05:04.881Z,96260.53
2022-12-25T21:07:31.559Z,96255.13
2022-12-25T21:09:59.241Z,96262.00
2022-12-25T21:12:26.339Z,96264.47
2022-12-25T21:14:52.958Z,96263.94
2022-12-25T21:17:19.593Z,96253.06
2022-12-25T21:19:46.248Z,96247.69
2022-12-25T21:22:12.899Z,96262.63
2022-12-25T21:24:39.508Z,96263.72
2022-12-25T21:27:06.105Z,96269.53
2022-12-25T21:29:32.735Z,96260.94
2022-12-25T21:32:17.836Z,96261.03
2022-12-25T21:34:44.533Z,96257.25
2022-12-25T21:37:11.144Z,96264.47
2022-12-25T21:39:37.779Z,96272.31
2022-12-25T21:42:04.699Z,96258.28
2022-12-25T21:44:31.402Z,96266.22
2022-12-25T21:46:58.000Z,96263.53
2022-12-25T21:49:43.247Z,96269.66
2022-12-25T21:52:09.907Z,96277.47
2022-12-25T21:54:36.573Z,96278.53
2022-12-25T21:57:03.479Z,96268.19
2022-12-25T21:59:30.132Z,96292.88
2022-12-25T22:01:56.901Z,96280.69
2022-12-25T22:04:23.806Z,96285.91
2022-12-25T22:07:09.367Z,96283.13
2022-12-25T22:09:36.266Z,96283.91
2022-12-25T22:12:22.192Z,96284.28
2022-12-25T22:14:56.629Z,96274.28
2022-12-25T22:17:46.596Z,96281.78
2022-12-25T22:20:19.681Z,96282.19
2022-12-25T22:22:46.476Z,96280.38
2022-12-25T22:25:13.906Z,96287.91
2022-12-25T22:27:42.292Z,96287.41
2022-12-25T22:30:15.374Z,96292.47
2022-12-25T22:32:42.383Z,96283.94
2022-12-25T22:35:10.540Z,96289.31
2022-12-25T22:37:37.254Z,96301.50
2022-12-25T22:40:05.979Z,96299.94
2022-12-25T22:42:32.922Z,96304.72
2022-12-25T22:44:59.544Z,96304.19
2022-12-25T22:47:26.152Z,96299.97
2022-12-25T22:49:53.094Z,96292.53
2022-12-25T22:52:19.900Z,96303.78
2022-12-25T22:54:46.573Z,96302.16
2022-12-25T22:57:13.208Z,96296.19
2022-12-25T22:59:40.169Z,96310.16
2022-12-25T23:02:06.928Z,96312.81
2022-12-25T23:04:33.768Z,96310.69
2022-12-25T23:07:00.504Z,96308.59
2022-12-25T23:09:29.916Z,96312.28
2022-12-25T23:11:58.014Z,96309.06
2022-12-25T23:14:41.789Z,96324.09
2022-12-25T23:17:31.537Z,96315.56
2022-12-25T23:20:18.809Z,96317.66
2022-12-25T23:23:04.873Z,96323.00
2022-12-25T23:25:50.053Z,96328.91
2022-12-25T23:28:36.631Z,96328.03
2022-12-25T23:31:03.720Z,96317.72
2022-12-25T23:33:30.367Z,96322.50
2022-12-25T23:35:56.988Z,96323.03
2022-12-25T23:38:23.693Z,96327.59
2022-12-25T23:40:50.285Z,96331.03
2022-12-25T23:43:16.914Z,96337.44
2022-12-25T23:45:43.555Z,96330.25
2022-12-25T23:48:10.180Z,96340.16
2022-12-25T23:50:36.800Z,96332.13
2022-12-25T23:53:03.409Z,96338.53
2022-12-25T23:55:30.063Z,96344.63
2022-12-25T23:57:56.671Z,96335.28
